Aérodrome :
LOGIN :

S'inscrire | Disclaimer

   EN    FR    IT 

 










Légende :    VFR   VFR Marginal   IFR   IFR Intensif   IFR Très Intensif
Visi : 
Plafond : 
>= 8 km
>= 3000ft
5 à 8 km
1000 à 3000 ft
1500m à 5 km
500 à 1000 ft
800 à 1500m
200 à 500 ft
< 800m
< 200 ft
Symboles :   Orages  Brouillard  Fortes neiges  Fortes précipitations  Vent > 20 kt
SIGMETs :   Divers  Orages  Givrage  Turbulence  Onde Orograph.  Cendres Volcan.






- Altitude de l'aérodrome : 588 ft
- Code IATA : DME


UUDD - Domodedovo International

DERNIER METAR :
  • 020130Z 08005MPS 050V120 9999 BKN017 10/06 Q1012 R14R/CLRD60 NOSIG

METARs EXPIRÉS :
  • 020100Z 09005MPS 9999 BKN017 10/06 Q1012 R14R/CLRD60 NOSIG
  • 020030Z 08005MPS 050V110 9999 SCT019 10/06 Q1012 R14R/CLRD60 NOSIG
  • 020000Z 08005MPS 050V110 9999 BKN020 10/06 Q1012 R14R/CLRD60 NOSIG
  • 012330Z 08005MPS 040V110 9999 BKN022 10/06 Q1013 R14R/CLRD60 NOSIG
  • 012300Z 07005MPS 050V110 9999 BKN025 10/06 Q1013 R14R/CLRD60 NOSIG

TAF TAF UUDD
Valide du 02 à 00h jusqu'au 03 à 06h UTC


012257Z 0200/0306 05006G11MPS 8000 FEW007 OVC016 TX13/0212Z TN09/0302Z
TEMPO 0203/0210 02010G16MPS 3100 -SHRA BKN005 BKN013CB
TEMPO 0210/0303 02010G16MPS 2000 SHRA BKN003 BKN013CB
PROB40
TEMPO 0212/0303 -TSRA BKN003 BKN010CB



MET'MAP, la Météo Aéronautique d'un coup d'oeil ! - Copyright ORBIFLY Décembre 2007 - Disclaimer

ORBIFLY MET'MAP TEAM :

Programmation & Développement : Alexandra Zaïnal
Sur une idée originale de : Baudouin d'Aumeries
Assistance à la programmation : Marc-Olivier Méhu
Soutien technique & logistique : Manuel Goepfert

Contact : metmap@orbifly.com




SOURCES & CREDITS :

   NOAA